createdAt,value
2019-03-08T04:48:28.021Z,3.95
2019-03-08T04:50:59.418Z,4.92
2019-03-08T04:53:30.048Z,4.08
2019-03-08T04:56:00.576Z,3.67
2019-03-08T04:58:32.245Z,4.50
2019-03-08T05:01:02.768Z,4.92
2019-03-08T05:03:33.398Z,4.60
2019-03-08T05:06:03.934Z,6.20
2019-03-08T05:08:34.464Z,6.47
2019-03-08T05:11:04.993Z,5.22
2019-03-08T05:13:35.622Z,5.50
2019-03-08T05:16:06.447Z,5.42
2019-03-08T05:18:36.989Z,6.05
2019-03-08T05:21:07.525Z,4.42
2019-03-08T05:23:38.050Z,5.40
2019-03-08T05:26:08.590Z,4.92
2019-03-08T05:28:39.298Z,6.50
2019-03-08T05:31:09.855Z,7.80
2019-03-08T05:33:40.484Z,9.58
2019-03-08T05:36:11.014Z,10.65
2019-03-08T05:38:41.654Z,11.20
2019-03-08T05:41:12.183Z,9.25
2019-03-08T05:43:42.717Z,9.23
2019-03-08T05:46:13.554Z,9.13
2019-03-08T05:48:44.186Z,7.90
2019-03-08T05:51:14.814Z,8.38
2019-03-08T05:53:45.291Z,6.70
2019-03-08T05:56:15.876Z,7.92
2019-03-08T05:58:46.374Z,7.33
2019-03-08T06:01:16.936Z,7.45
2019-03-08T06:03:47.473Z,6.65
2019-03-08T06:06:18.106Z,7.50
2019-03-08T06:08:48.834Z,8.15
2019-03-08T06:11:19.364Z,13.83
2019-03-08T06:13:49.946Z,12.75
2019-03-08T06:16:20.536Z,11.08
2019-03-08T06:18:51.521Z,9.00
2019-03-08T06:21:26.063Z,8.08
2019-03-08T06:23:57.351Z,5.53
2019-03-08T06:26:28.077Z,5.08
2019-03-08T06:28:58.816Z,7.42
2019-03-08T06:31:29.289Z,4.35
2019-03-08T06:34:00.392Z,6.20
2019-03-08T06:36:30.963Z,13.18
2019-03-08T06:39:01.745Z,6.00
2019-03-08T06:41:33.828Z,7.53
2019-03-08T06:44:04.356Z,6.87
2019-03-08T06:46:34.888Z,5.60
2019-03-08T06:49:05.423Z,4.25
2019-03-08T06:51:36.047Z,4.78
2019-03-08T06:54:06.687Z,3.83
2019-03-08T06:56:37.205Z,3.90
2019-03-08T06:59:09.329Z,4.47
2019-03-08T07:01:40.680Z,4.10
2019-03-08T07:04:11.263Z,4.37
2019-03-08T07:06:41.894Z,3.40
2019-03-08T07:09:12.429Z,5.37
2019-03-08T07:11:42.958Z,2.60
2019-03-08T07:14:13.626Z,2.58
2019-03-08T07:16:44.518Z,2.50
2019-03-08T07:19:14.996Z,2.30
2019-03-08T07:21:49.686Z,2.55
2019-03-08T07:24:28.294Z,2.30
2019-03-08T07:27:17.058Z,2.60
2019-03-08T07:30:01.319Z,2.85
2019-03-08T07:32:36.664Z,3.75
2019-03-08T07:35:25.321Z,3.25
2019-03-08T07:38:03.686Z,3.37
2019-03-08T07:40:52.283Z,2.60
2019-03-08T07:43:24.500Z,3.35
2019-03-08T07:45:56.726Z,2.45
2019-03-08T07:48:44.459Z,3.02
2019-03-08T07:51:16.628Z,4.75
2019-03-08T07:53:48.799Z,2.77
2019-03-08T07:56:23.649Z,4.80
2019-03-08T07:58:58.833Z,4.17
2019-03-08T08:01:31.034Z,1.92
2019-03-08T08:04:03.211Z,2.40
2019-03-08T08:06:35.489Z,2.27
2019-03-08T08:09:23.624Z,2.60
2019-03-08T08:11:58.504Z,11.35
2019-03-08T08:14:39.143Z,2.40
2019-03-08T08:17:20.913Z,7.12
2019-03-08T08:19:53.088Z,2.62
2019-03-08T08:22:40.430Z,2.50
2019-03-08T08:25:24.969Z,2.47
2019-03-08T08:28:03.276Z,2.98
2019-03-08T08:30:53.930Z,2.10
2019-03-08T08:33:44.588Z,2.15
2019-03-08T08:36:25.880Z,3.20
2019-03-08T08:39:04.194Z,3.17
2019-03-08T08:41:40.558Z,3.42
2019-03-08T08:44:30.948Z,2.10
2019-03-08T08:47:12.035Z,2.42
2019-03-08T08:50:02.679Z,2.70
2019-03-08T08:52:37.565Z,2.25
2019-03-08T08:55:13.111Z,2.30
2019-03-08T08:57:48.143Z,3.33
2019-03-08T09:00:32.309Z,2.40
2019-03-08T09:03:16.850Z,3.00
2019-03-08T09:05:49.140Z,2.50
2019-03-08T09:08:24.266Z,2.12
2019-03-08T09:10:56.387Z,3.10
2019-03-08T09:13:31.166Z,3.20
2019-03-08T09:16:03.330Z,2.50
2019-03-08T09:18:35.670Z,2.80
2019-03-08T09:21:26.014Z,2.45
2019-03-08T09:23:58.267Z,1.95
2019-03-08T09:26:45.833Z,2.87
2019-03-08T09:29:18.275Z,2.30
2019-03-08T09:32:05.827Z,1.32
2019-03-08T09:34:42.895Z,1.85
2019-03-08T09:37:15.159Z,1.50
2019-03-08T09:39:50.297Z,1.90
2019-03-08T09:42:34.416Z,2.02
2019-03-08T09:45:11.897Z,2.17
2019-03-08T09:47:44.104Z,1.70
2019-03-08T09:50:16.270Z,4.22
2019-03-08T09:52:51.503Z,1.55
2019-03-08T09:55:26.854Z,2.85
2019-03-08T09:57:59.294Z,1.95
2019-03-08T10:00:34.743Z,1.80
2019-03-08T10:03:23.219Z,1.75
2019-03-08T10:05:59.151Z,2.15
2019-03-08T10:08:40.461Z,3.10
2019-03-08T10:11:18.239Z,2.80
2019-03-08T10:13:50.502Z,2.47
2019-03-08T10:16:28.312Z,1.80
2019-03-08T10:19:03.548Z,2.50
2019-03-08T10:21:41.762Z,3.42
2019-03-08T10:24:13.946Z,2.20
2019-03-08T10:26:55.461Z,3.58
2019-03-08T10:29:27.688Z,3.25
2019-03-08T10:32:02.620Z,2.47
2019-03-08T10:34:40.633Z,4.08
2019-03-08T10:37:15.563Z,4.12
2019-03-08T10:39:54.024Z,3.33
2019-03-08T10:42:42.526Z,2.72
2019-03-08T10:45:24.020Z,2.45
2019-03-08T10:47:59.058Z,3.35
2019-03-08T10:50:43.512Z,2.30
2019-03-08T10:53:15.681Z,2.50
2019-03-08T10:56:06.082Z,2.00
2019-03-08T10:58:38.241Z,3.12
2019-03-08T11:01:25.474Z,3.40
2019-03-08T11:04:06.655Z,2.05
2019-03-08T11:06:55.417Z,2.65
2019-03-08T11:09:44.266Z,1.90
2019-03-08T11:12:34.371Z,2.02
2019-03-08T11:15:26.170Z,2.40
2019-03-08T11:18:04.089Z,2.45
2019-03-08T11:20:52.546Z,1.95
2019-03-08T11:23:32.088Z,2.42
2019-03-08T11:26:10.296Z,2.67
2019-03-08T11:29:00.894Z,2.05
2019-03-08T11:31:48.737Z,2.20
2019-03-08T11:34:30.664Z,2.02
2019-03-08T11:37:04.203Z,1.52
2019-03-08T11:39:39.511Z,2.35
2019-03-08T11:42:14.518Z,2.33
2019-03-08T11:44:46.654Z,1.95
2019-03-08T11:47:19.060Z,2.10
2019-03-08T11:50:03.415Z,2.10
2019-03-08T11:52:41.527Z,3.10
2019-03-08T11:55:23.113Z,2.27
2019-03-08T11:57:55.281Z,1.95
2019-03-08T12:00:27.446Z,2.42
2019-03-08T12:02:59.718Z,6.05
2019-03-08T12:05:49.851Z,11.55
2019-03-08T12:08:25.263Z,4.78
2019-03-08T12:11:09.183Z,3.75
2019-03-08T12:13:59.761Z,2.62
2019-03-08T12:16:44.160Z,3.22
2019-03-08T12:19:28.612Z,3.25
2019-03-08T12:22:16.957Z,3.50
2019-03-08T12:24:51.893Z,2.62
2019-03-08T12:27:29.796Z,2.55
2019-03-08T12:30:04.241Z,2.70
2019-03-08T12:32:37.278Z,2.62
2019-03-08T12:35:21.370Z,2.50
2019-03-08T12:37:59.260Z,2.30
2019-03-08T12:40:31.361Z,1.77
2019-03-08T12:43:08.011Z,2.52
2019-03-08T12:45:46.424Z,2.12
2019-03-08T12:48:34.559Z,3.77
2019-03-08T12:51:09.391Z,1.75
2019-03-08T12:53:58.046Z,1.67
2019-03-08T12:56:46.705Z,1.90
2019-03-08T12:59:18.882Z,1.65
2019-03-08T13:01:54.018Z,2.00
2019-03-08T13:04:31.923Z,3.40
2019-03-08T13:07:13.516Z,52.53
2019-03-08T13:09:45.679Z,11.95
2019-03-08T13:12:16.418Z,4.30
2019-03-08T13:14:47.971Z,2.75
2019-03-08T13:17:18.904Z,6.70
2019-03-08T13:19:49.435Z,8.83
2019-03-08T13:22:20.082Z,8.53
2019-03-08T13:24:50.608Z,7.08
2019-03-08T13:27:21.241Z,12.55
2019-03-08T13:29:51.772Z,9.03
2019-03-08T13:32:22.401Z,2.62
2019-03-08T13:34:53.766Z,9.85
2019-03-08T13:37:24.284Z,4.08
2019-03-08T13:39:54.832Z,5.08
2019-03-08T13:42:25.343Z,3.83
2019-03-08T13:44:55.825Z,10.98
2019-03-08T13:47:26.471Z,7.25
2019-03-08T13:49:57.019Z,4.95
2019-03-08T13:52:27.676Z,6.53
2019-03-08T13:54:58.303Z,8.38
2019-03-08T13:57:28.934Z,6.92
2019-03-08T13:59:59.576Z,30.08
2019-03-08T14:02:30.205Z,21.20
2019-03-08T14:05:00.736Z,32.28
2019-03-08T14:07:32.493Z,76.50
2019-03-08T14:10:03.430Z,22.55
2019-03-08T14:12:34.073Z,44.42
2019-03-08T14:15:10.568Z,7.85
2019-03-08T14:17:41.168Z,9.73
2019-03-08T14:20:26.348Z,21.90
2019-03-08T14:22:57.392Z,38.45
2019-03-08T14:25:27.952Z,15.75
2019-03-08T14:27:58.559Z,69.47
2019-03-08T14:30:32.083Z,24.07
2019-03-08T14:33:03.510Z,36.73
2019-03-08T14:35:34.046Z,9.33
2019-03-08T14:38:04.667Z,5.37
2019-03-08T14:40:36.948Z,72.20
2019-03-08T14:43:09.208Z,24.32
2019-03-08T14:45:44.644Z,5.15
2019-03-08T14:48:15.600Z,5.05
2019-03-08T14:50:46.333Z,2.98
2019-03-08T14:53:17.278Z,8.63
2019-03-08T14:55:47.919Z,8.50
2019-03-08T14:58:20.290Z,5.08
2019-03-08T15:00:51.119Z,5.62
2019-03-08T15:03:23.702Z,12.95
2019-03-08T15:05:54.819Z,6.72
2019-03-08T15:08:26.606Z,3.60
2019-03-08T15:10:57.237Z,2.65
2019-03-08T15:13:28.894Z,3.72
2019-03-08T15:16:02.236Z,3.80
2019-03-08T15:18:31.997Z,3.62
2019-03-08T15:21:02.638Z,8.68
2019-03-08T15:23:33.273Z,13.53
2019-03-08T15:26:04.007Z,2.90
2019-03-08T15:28:34.694Z,4.78
2019-03-08T15:31:05.267Z,5.80
2019-03-08T15:33:36.007Z,5.10
2019-03-08T15:36:06.648Z,3.80
2019-03-08T15:38:37.143Z,9.53
2019-03-08T15:41:07.808Z,5.90
2019-03-08T15:43:38.305Z,5.15
2019-03-08T15:46:08.963Z,3.75
2019-03-08T15:48:39.527Z,4.83
2019-03-08T15:51:10.643Z,3.02
2019-03-08T15:53:41.337Z,5.35
2019-03-08T15:56:11.814Z,3.45
2019-03-08T15:58:42.446Z,6.15
2019-03-08T16:01:12.973Z,3.75
2019-03-08T16:03:43.774Z,16.20
2019-03-08T16:06:14.258Z,8.08
2019-03-08T16:08:44.974Z,8.20
2019-03-08T16:11:15.457Z,4.12
2019-03-08T16:13:46.135Z,16.60
2019-03-08T16:16:16.691Z,17.65
2019-03-08T16:18:48.222Z,11.75
2019-03-08T16:21:18.953Z,7.53
2019-03-08T16:23:51.655Z,5.20
2019-03-08T16:26:25.397Z,6.30
2019-03-08T16:28:54.442Z,9.33
2019-03-08T16:31:36.140Z,4.03
2019-03-08T16:34:08.507Z,6.47
2019-03-08T16:36:43.948Z,3.47
2019-03-08T16:39:28.207Z,15.50
2019-03-08T16:42:06.728Z,5.92
2019-03-08T16:44:39.098Z,42.27
2019-03-08T16:47:23.454Z,25.08
2019-03-08T16:50:08.023Z,2.83
2019-03-08T16:52:40.253Z,4.80
2019-03-08T16:55:30.891Z,4.12
2019-03-08T16:58:12.678Z,14.05
2019-03-08T17:00:45.051Z,16.55
2019-03-08T17:03:17.425Z,17.00
2019-03-08T17:05:52.465Z,35.10
2019-03-08T17:08:27.510Z,33.30
2019-03-08T17:11:16.260Z,49.40
2019-03-08T17:13:51.609Z,23.07
2019-03-08T17:16:38.830Z,33.88
2019-03-08T17:19:13.868Z,19.05
2019-03-08T17:21:46.344Z,26.80
2019-03-08T17:24:38.584Z,19.65
2019-03-08T17:27:13.391Z,23.55
2019-03-08T17:29:45.931Z,16.00
2019-03-08T17:32:18.170Z,12.40
2019-03-08T17:34:50.636Z,10.20
2019-03-08T17:37:28.635Z,7.97
2019-03-08T17:40:17.516Z,4.80
2019-03-08T17:42:51.416Z,24.15
2019-03-08T17:45:35.978Z,35.25
2019-03-08T17:48:08.242Z,19.90
2019-03-08T17:50:42.149Z,31.97
2019-03-08T17:53:30.806Z,31.30
2019-03-08T17:56:07.448Z,44.63
2019-03-08T17:58:42.377Z,26.77
2019-03-08T18:01:14.587Z,26.15
2019-03-08T18:03:55.814Z,133.65
2019-03-08T18:06:34.262Z,83.55
2019-03-08T18:09:07.171Z,47.67
2019-03-08T18:11:43.929Z,54.83
2019-03-08T18:14:33.282Z,78.65
2019-03-08T18:17:08.154Z,27.73
2019-03-08T18:19:41.100Z,37.05
2019-03-08T18:22:14.088Z,18.15
2019-03-08T18:24:52.397Z,27.05
2019-03-08T18:27:25.281Z,24.30
2019-03-08T18:30:01.699Z,18.77
2019-03-08T18:32:51.453Z,21.93
2019-03-08T18:35:32.766Z,16.20
2019-03-08T18:38:23.419Z,24.40
2019-03-08T18:41:01.480Z,18.10
2019-03-08T18:43:42.958Z,11.18
2019-03-08T18:46:18.306Z,17.37
2019-03-08T18:49:07.744Z,18.00
2019-03-08T18:51:58.172Z,13.95
2019-03-08T18:54:30.546Z,27.17
2019-03-08T18:57:03.030Z,28.90
2019-03-08T18:59:51.884Z,24.55
2019-03-08T19:02:30.304Z,25.77
2019-03-08T19:05:02.774Z,31.37
2019-03-08T19:07:42.732Z,39.10
2019-03-08T19:10:30.899Z,31.50
2019-03-08T19:13:15.029Z,20.92
2019-03-08T19:15:47.298Z,21.45
2019-03-08T19:18:25.615Z,21.73
2019-03-08T19:21:06.840Z,23.20
2019-03-08T19:23:54.633Z,18.95
2019-03-08T19:26:29.468Z,20.50
2019-03-08T19:29:07.685Z,20.02
2019-03-08T19:31:40.052Z,26.57
2019-03-08T19:34:12.388Z,21.65
2019-03-08T19:36:44.715Z,24.20
2019-03-08T19:39:19.522Z,23.32
2019-03-08T19:41:57.836Z,24.05
2019-03-08T19:44:42.698Z,21.62
2019-03-08T19:47:21.020Z,19.45
2019-03-08T19:50:07.216Z,31.70
2019-03-08T19:52:39.594Z,64.90
2019-03-08T19:55:16.454Z,54.23
2019-03-08T19:58:03.898Z,101.90
